createdAt,value
2017-11-26T00:00:06.222Z,4.02
2017-11-26T00:01:57.866Z,4.03
2017-11-26T00:02:57.043Z,4.08
2017-11-26T00:04:49.918Z,3.98
2017-11-26T00:05:50.413Z,4.09
2017-11-26T00:07:44.032Z,4.02
2017-11-26T00:08:43.413Z,4.06
2017-11-26T00:10:38.313Z,3.96
2017-11-26T00:12:57.828Z,3.88
2017-11-26T00:13:58.897Z,3.99
2017-11-26T00:15:50.704Z,4.03
2017-11-26T00:18:12.053Z,3.88
2017-11-26T00:19:12.081Z,3.96
2017-11-26T00:21:04.834Z,4.00
2017-11-26T00:22:05.603Z,3.96
2017-11-26T00:23:57.703Z,3.96
2017-11-26T00:24:58.498Z,3.98
2017-11-26T00:26:49.765Z,4.03
2017-11-26T00:27:49.988Z,3.98
2017-11-26T00:29:43.576Z,3.98
2017-11-26T00:30:42.828Z,3.96
2017-11-26T00:32:35.535Z,3.85
2017-11-26T00:33:36.659Z,3.98
2017-11-26T00:35:28.021Z,3.92
2017-11-26T00:36:28.508Z,3.90
2017-11-26T00:38:20.959Z,3.91
2017-11-26T00:39:21.063Z,3.85
2017-11-26T00:41:13.679Z,3.87
2017-11-26T00:42:14.149Z,3.94
2017-11-26T00:44:06.369Z,3.90
2017-11-26T00:45:06.777Z,3.81
2017-11-26T00:46:59.282Z,3.87
2017-11-26T00:48:00.808Z,3.82
2017-11-26T00:49:53.793Z,3.91
2017-11-26T00:52:14.172Z,3.85
2017-11-26T00:53:16.098Z,3.85
2017-11-26T00:55:08.465Z,3.85
2017-11-26T00:56:07.659Z,3.72
2017-11-26T00:58:00.208Z,3.74
2017-11-26T00:59:09.583Z,3.84
2017-11-26T01:00:54.806Z,3.82
2017-11-26T01:01:54.440Z,3.82
2017-11-26T01:03:46.954Z,3.76
2017-11-26T01:04:47.213Z,3.85
2017-11-26T01:06:40.515Z,3.94
2017-11-26T01:09:14.035Z,3.73
2017-11-26T01:10:14.268Z,3.80
2017-11-26T01:12:05.747Z,3.81
2017-11-26T01:13:05.858Z,3.72
2017-11-26T01:15:01.662Z,3.81
2017-11-26T01:16:01.651Z,3.90
2017-11-26T01:18:54.006Z,3.80
2017-11-26T01:19:54.267Z,3.70
2017-11-26T01:21:48.578Z,3.74
2017-11-26T01:22:48.595Z,3.80
2017-11-26T01:24:45.669Z,3.81
2017-11-26T01:25:45.240Z,3.81
2017-11-26T01:27:47.072Z,3.73
2017-11-26T01:28:46.612Z,3.80
2017-11-26T01:30:40.324Z,3.84
2017-11-26T01:31:40.353Z,3.70
2017-11-26T01:33:32.495Z,3.72
2017-11-26T01:34:32.780Z,3.78
2017-11-26T01:36:27.256Z,3.81
2017-11-26T01:37:28.085Z,3.82
2017-11-26T01:39:21.510Z,3.76
2017-11-26T01:40:22.454Z,3.73
2017-11-26T01:42:15.722Z,3.84
2017-11-26T01:43:15.859Z,3.78
2017-11-26T01:45:08.889Z,3.74
2017-11-26T01:46:09.515Z,3.73
2017-11-26T01:48:04.312Z,3.82
2017-11-26T01:49:04.896Z,3.78
2017-11-26T01:50:56.555Z,3.87
2017-11-26T01:51:56.282Z,3.67
2017-11-26T01:53:51.654Z,3.76
2017-11-26T01:54:51.531Z,3.66
2017-11-26T01:56:54.454Z,3.73
2017-11-26T01:57:46.035Z,3.80
2017-11-26T01:59:42.089Z,3.64
2017-11-26T02:00:39.336Z,3.69
2017-11-26T02:02:34.355Z,3.70
2017-11-26T02:03:34.709Z,3.66
2017-11-26T02:05:27.772Z,3.67
2017-11-26T02:06:26.741Z,3.74
2017-11-26T02:08:22.393Z,3.72
2017-11-26T02:09:23.439Z,3.78
2017-11-26T02:11:15.391Z,3.70
2017-11-26T02:12:15.491Z,3.73
2017-11-26T02:14:09.304Z,3.74
2017-11-26T02:17:04.810Z,3.76
2017-11-26T02:18:03.210Z,3.76
2017-11-26T02:19:56.223Z,3.70
2017-11-26T02:22:16.317Z,3.72
2017-11-26T02:24:42.878Z,3.80
2017-11-26T02:25:41.867Z,3.78
2017-11-26T02:27:36.594Z,3.66
2017-11-26T02:28:36.852Z,3.69
2017-11-26T02:30:30.535Z,3.67
2017-11-26T02:31:30.686Z,3.67
2017-11-26T02:33:25.341Z,3.64
2017-11-26T02:34:25.314Z,3.69
2017-11-26T02:36:17.892Z,3.64
2017-11-26T02:37:18.795Z,3.63
2017-11-26T02:39:12.875Z,3.70
2017-11-26T02:40:11.597Z,3.66
2017-11-26T02:42:05.664Z,3.74
2017-11-26T02:43:03.895Z,3.67
2017-11-26T02:44:58.555Z,3.70
2017-11-26T02:45:57.267Z,3.70
2017-11-26T02:47:51.866Z,3.64
2017-11-26T02:48:51.074Z,3.69
2017-11-26T02:50:45.215Z,3.69
2017-11-26T02:51:45.074Z,3.69
2017-11-26T02:53:41.635Z,3.67
2017-11-26T02:54:48.662Z,3.56
2017-11-26T02:56:41.873Z,3.63
2017-11-26T02:57:33.918Z,3.60
2017-11-26T02:59:26.746Z,3.67
2017-11-26T03:01:48.743Z,3.63
2017-11-26T03:04:17.786Z,3.62
2017-11-26T03:06:36.726Z,3.63
2017-11-26T03:07:36.045Z,3.63
2017-11-26T03:09:30.418Z,3.56
2017-11-26T03:10:30.280Z,3.66
2017-11-26T03:12:24.045Z,3.63
2017-11-26T03:13:22.987Z,3.63
2017-11-26T03:15:17.938Z,3.64
2017-11-26T03:16:17.201Z,3.64
2017-11-26T03:18:10.714Z,3.63
2017-11-26T03:19:09.447Z,3.67
2017-11-26T03:21:04.890Z,3.63
2017-11-26T03:22:03.275Z,3.62
2017-11-26T03:23:56.129Z,3.63
2017-11-26T03:24:57.110Z,3.72
2017-11-26T03:27:02.976Z,3.62
2017-11-26T03:28:03.282Z,3.63
2017-11-26T03:30:02.205Z,3.62
2017-11-26T03:31:01.188Z,3.63
2017-11-26T03:32:55.814Z,3.64
2017-11-26T03:33:56.517Z,3.60
2017-11-26T03:35:48.935Z,3.56
2017-11-26T03:36:49.703Z,3.60
2017-11-26T03:38:42.976Z,3.55
2017-11-26T03:39:42.457Z,3.62
2017-11-26T03:41:37.422Z,3.55
2017-11-26T03:42:38.374Z,3.59
2017-11-26T03:44:35.216Z,3.60
2017-11-26T03:45:34.807Z,3.56
2017-11-26T03:47:28.019Z,3.66
2017-11-26T03:48:27.825Z,3.60
2017-11-26T03:50:23.544Z,3.54
2017-11-26T03:51:23.538Z,3.56
2017-11-26T03:53:19.636Z,3.51
2017-11-26T03:55:40.212Z,3.49
2017-11-26T03:56:40.927Z,3.59
2017-11-26T03:58:33.204Z,3.56
2017-11-26T04:02:11.387Z,3.56
2017-11-26T04:03:11.221Z,3.45
2017-11-26T04:05:07.464Z,3.63
2017-11-26T04:06:04.342Z,3.51
2017-11-26T04:07:59.392Z,3.60
2017-11-26T04:08:58.852Z,3.49
2017-11-26T04:10:50.964Z,3.59
2017-11-26T04:13:12.621Z,3.54
2017-11-26T04:14:13.889Z,3.54
2017-11-26T04:16:06.693Z,3.62
2017-11-26T04:17:05.744Z,3.52
2017-11-26T04:19:03.265Z,3.62
2017-11-26T04:21:56.862Z,3.51
2017-11-26T04:22:56.443Z,3.51
2017-11-26T04:24:49.930Z,3.59
2017-11-26T04:25:51.261Z,3.60
2017-11-26T04:27:43.357Z,3.55
2017-11-26T04:28:43.394Z,3.63
2017-11-26T04:30:36.407Z,3.56
2017-11-26T04:31:36.803Z,3.60
2017-11-26T04:33:29.713Z,3.55
2017-11-26T04:34:28.032Z,3.59
2017-11-26T04:36:23.218Z,3.59
2017-11-26T04:37:22.728Z,3.59
2017-11-26T04:39:15.932Z,3.52
2017-11-26T04:40:15.420Z,3.51
2017-11-26T04:42:09.503Z,3.62
2017-11-26T04:43:09.684Z,3.60
2017-11-26T04:45:02.309Z,3.51
2017-11-26T04:46:03.776Z,3.52
2017-11-26T04:48:06.695Z,3.54
2017-11-26T04:49:05.907Z,3.60
2017-11-26T04:51:00.634Z,3.56
2017-11-26T04:53:24.579Z,3.56
2017-11-26T04:54:24.595Z,3.55
2017-11-26T04:56:18.227Z,3.55
2017-11-26T04:58:45.262Z,3.48
2017-11-26T04:59:43.904Z,3.51
2017-11-26T05:01:39.243Z,3.56
2017-11-26T05:02:47.555Z,3.45
2017-11-26T05:04:33.547Z,3.52
2017-11-26T05:07:26.991Z,3.46
2017-11-26T05:08:26.084Z,3.48
2017-11-26T05:10:20.056Z,3.49
2017-11-26T05:11:20.566Z,3.46
2017-11-26T05:13:14.431Z,3.54
2017-11-26T05:14:14.285Z,3.49
2017-11-26T05:16:08.485Z,3.42
2017-11-26T05:17:07.513Z,3.42
2017-11-26T05:19:00.987Z,3.42
2017-11-26T05:20:01.229Z,3.35
2017-11-26T05:21:54.484Z,3.37
2017-11-26T05:22:54.946Z,3.41
2017-11-26T05:24:46.432Z,3.37
2017-11-26T05:25:47.220Z,3.48
2017-11-26T05:27:40.981Z,3.37
2017-11-26T05:28:41.019Z,3.41
2017-11-26T05:30:34.439Z,3.37
2017-11-26T05:31:33.241Z,3.37
2017-11-26T05:33:26.957Z,3.42
2017-11-26T05:34:27.482Z,3.37
2017-11-26T05:36:22.644Z,3.36
2017-11-26T05:37:20.724Z,3.36
2017-11-26T05:39:14.652Z,3.35
2017-11-26T05:40:13.795Z,3.35
2017-11-26T05:42:07.412Z,3.44
2017-11-26T05:43:07.605Z,3.36
2017-11-26T05:45:01.901Z,3.41
2017-11-26T05:46:01.702Z,3.41
2017-11-26T05:47:54.108Z,3.42
2017-11-26T05:48:55.649Z,3.45
2017-11-26T05:50:46.947Z,3.33
2017-11-26T05:51:48.440Z,3.37
2017-11-26T05:53:40.764Z,3.36
2017-11-26T05:54:41.052Z,3.44
2017-11-26T05:56:33.485Z,3.32
2017-11-26T05:58:54.402Z,3.33
2017-11-26T06:01:46.179Z,3.33
2017-11-26T06:04:08.258Z,3.46
2017-11-26T06:06:26.643Z,3.37
2017-11-26T06:08:47.351Z,3.35
2017-11-26T06:09:47.890Z,3.36
2017-11-26T06:11:40.668Z,3.37
2017-11-26T06:14:01.104Z,3.44
2017-11-26T06:15:01.382Z,3.33
2017-11-26T06:16:54.087Z,3.41
2017-11-26T06:17:54.273Z,3.37
2017-11-26T06:19:47.712Z,3.36
2017-11-26T06:20:47.981Z,3.35
2017-11-26T06:22:40.370Z,3.37
2017-11-26T06:23:41.209Z,3.27
2017-11-26T06:25:33.841Z,3.36
2017-11-26T06:26:34.602Z,3.33
2017-11-26T06:28:26.027Z,3.35
2017-11-26T06:29:25.376Z,3.25
2017-11-26T06:31:20.249Z,3.23
2017-11-26T06:32:20.683Z,3.32
2017-11-26T06:34:13.733Z,3.23
2017-11-26T06:35:13.933Z,3.30
2017-11-26T06:37:07.732Z,3.36
2017-11-26T06:38:07.004Z,3.27
2017-11-26T06:40:01.566Z,3.26
2017-11-26T06:41:01.113Z,3.29
2017-11-26T06:42:54.164Z,3.26
2017-11-26T06:43:54.346Z,3.26
2017-11-26T06:45:48.562Z,3.27
2017-11-26T06:46:48.975Z,3.30
2017-11-26T06:48:41.441Z,3.27
2017-11-26T06:49:42.368Z,3.33
2017-11-26T06:51:35.316Z,3.29
2017-11-26T06:52:35.463Z,3.29
2017-11-26T06:54:28.989Z,3.29
2017-11-26T06:55:28.764Z,3.25
2017-11-26T06:57:24.176Z,3.27
2017-11-26T06:58:23.368Z,3.22
2017-11-26T07:00:17.121Z,3.26
2017-11-26T07:01:16.847Z,3.23
2017-11-26T07:03:11.905Z,3.26
2017-11-26T07:04:11.161Z,3.23
2017-11-26T07:06:07.364Z,3.26
2017-11-26T07:07:06.036Z,3.14
2017-11-26T07:08:59.278Z,3.26
2017-11-26T07:09:58.756Z,3.25
2017-11-26T07:11:53.410Z,3.20
2017-11-26T07:12:53.685Z,3.25
2017-11-26T07:14:48.017Z,3.29
2017-11-26T07:15:46.283Z,3.32
2017-11-26T07:17:40.949Z,3.37
2017-11-26T07:20:03.798Z,3.36
2017-11-26T07:21:04.093Z,3.23
2017-11-26T07:22:57.095Z,3.36
2017-11-26T07:23:56.833Z,3.32
2017-11-26T07:25:48.714Z,3.33
2017-11-26T07:26:49.069Z,3.26
2017-11-26T07:28:46.355Z,3.20
2017-11-26T07:31:39.410Z,3.25
2017-11-26T07:32:39.246Z,3.26
2017-11-26T07:34:32.428Z,3.30
2017-11-26T07:35:33.190Z,3.26
2017-11-26T07:37:26.190Z,3.23
2017-11-26T07:38:25.694Z,3.26
2017-11-26T07:40:20.442Z,3.32
2017-11-26T07:41:20.902Z,3.36
2017-11-26T07:43:14.868Z,3.26
2017-11-26T07:44:14.489Z,3.32
2017-11-26T07:46:14.188Z,3.26
2017-11-26T07:47:13.808Z,3.22
2017-11-26T07:49:07.601Z,3.27
2017-11-26T07:50:07.066Z,3.29
2017-11-26T07:52:00.028Z,3.26
2017-11-26T07:53:00.121Z,3.33
2017-11-26T07:54:53.782Z,3.33
2017-11-26T07:55:53.633Z,3.17
2017-11-26T07:57:47.451Z,3.27
2017-11-26T07:58:48.347Z,3.26
2017-11-26T08:00:42.578Z,3.27
2017-11-26T08:03:03.465Z,3.32
2017-11-26T08:05:38.292Z,3.25
2017-11-26T08:07:58.076Z,3.23
2017-11-26T08:08:58.816Z,3.32
2017-11-26T08:10:52.410Z,3.26
2017-11-26T08:11:50.926Z,3.26
2017-11-26T08:13:45.224Z,3.23
2017-11-26T08:16:07.081Z,3.23
2017-11-26T08:17:06.393Z,3.35
2017-11-26T08:19:01.425Z,3.33
2017-11-26T08:21:22.141Z,3.37
2017-11-26T08:22:21.519Z,3.37
2017-11-26T08:24:15.578Z,3.35
2017-11-26T08:25:15.627Z,3.35
2017-11-26T08:27:09.293Z,3.42
2017-11-26T08:28:09.953Z,3.37
2017-11-26T08:30:02.173Z,3.44
2017-11-26T08:31:02.423Z,3.45
2017-11-26T08:32:57.020Z,3.51
2017-11-26T08:33:56.867Z,3.49
2017-11-26T08:35:50.657Z,3.46
2017-11-26T08:36:50.622Z,3.54
2017-11-26T08:38:44.847Z,3.59
2017-11-26T08:39:44.185Z,3.52
2017-11-26T08:41:37.525Z,3.54
2017-11-26T08:42:37.994Z,3.56
2017-11-26T08:44:29.889Z,3.51
2017-11-26T08:45:29.779Z,3.51
2017-11-26T08:47:23.072Z,3.46
2017-11-26T08:48:23.483Z,3.52
2017-11-26T08:50:16.744Z,3.60
2017-11-26T08:51:16.787Z,3.52
2017-11-26T08:53:10.105Z,3.59
2017-11-26T08:55:33.818Z,3.56
2017-11-26T08:57:57.597Z,3.52
2017-11-26T09:00:19.331Z,3.56
2017-11-26T09:01:20.229Z,3.54
2017-11-26T09:03:13.153Z,3.52
2017-11-26T09:05:34.117Z,3.59
2017-11-26T09:06:35.022Z,3.64
2017-11-26T09:08:29.455Z,3.54
2017-11-26T09:10:52.401Z,3.52
2017-11-26T09:11:52.905Z,3.59
2017-11-26T09:13:46.834Z,3.48
2017-11-26T09:14:48.364Z,3.52
2017-11-26T09:16:44.058Z,3.54
2017-11-26T09:19:38.672Z,3.52
2017-11-26T09:20:38.225Z,3.55
2017-11-26T09:22:31.383Z,3.51
2017-11-26T09:23:32.009Z,3.51
2017-11-26T09:25:23.843Z,3.62
2017-11-26T09:26:24.273Z,3.64
2017-11-26T09:28:17.051Z,3.54
2017-11-26T09:29:16.580Z,3.60
2017-11-26T09:31:10.964Z,3.63
2017-11-26T09:32:10.752Z,3.54
2017-11-26T09:34:04.034Z,3.54
2017-11-26T09:35:04.034Z,3.55
2017-11-26T09:36:57.316Z,3.54
2017-11-26T09:37:57.807Z,3.55
2017-11-26T09:39:50.723Z,3.55
2017-11-26T09:40:50.651Z,3.54
2017-11-26T09:42:44.265Z,3.60
2017-11-26T09:43:43.942Z,3.56
2017-11-26T09:45:37.798Z,3.63
2017-11-26T09:46:36.900Z,3.67
2017-11-26T09:48:30.868Z,3.64
2017-11-26T09:49:30.950Z,3.63
2017-11-26T09:51:24.364Z,3.76
2017-11-26T09:52:26.997Z,3.70
2017-11-26T09:54:18.445Z,3.64
2017-11-26T09:56:39.997Z,3.60
2017-11-26T09:57:40.312Z,3.69
2017-11-26T09:59:32.382Z,3.74
2017-11-26T10:01:56.357Z,3.73
2017-11-26T10:04:16.759Z,3.69
2017-11-26T10:05:15.251Z,3.63
2017-11-26T10:07:09.769Z,3.67
2017-11-26T10:09:28.932Z,3.82
2017-11-26T10:10:28.986Z,3.73
2017-11-26T10:12:22.630Z,3.64
2017-11-26T10:13:28.144Z,3.67
2017-11-26T10:15:13.509Z,3.69
2017-11-26T10:16:14.376Z,3.80
2017-11-26T10:18:06.583Z,3.70
2017-11-26T10:19:07.382Z,3.82
2017-11-26T10:20:59.892Z,3.81
2017-11-26T10:21:58.896Z,3.76
2017-11-26T10:23:52.471Z,3.84
2017-11-26T10:24:52.670Z,3.76
2017-11-26T10:26:44.402Z,3.88
2017-11-26T10:27:44.875Z,3.84
2017-11-26T10:29:39.103Z,3.76
2017-11-26T10:30:38.613Z,3.73
2017-11-26T10:32:32.104Z,3.73
2017-11-26T10:33:31.350Z,3.85
2017-11-26T10:35:31.622Z,3.80
2017-11-26T10:36:31.631Z,3.85
2017-11-26T10:38:25.393Z,3.76
2017-11-26T10:39:25.013Z,3.63
2017-11-26T10:41:18.920Z,3.76
2017-11-26T10:42:18.756Z,3.82
2017-11-26T10:44:10.967Z,3.80
2017-11-26T10:45:11.489Z,3.84
2017-11-26T10:47:06.018Z,3.82
2017-11-26T10:48:05.872Z,3.84
2017-11-26T10:50:00.529Z,3.72
2017-11-26T10:50:59.514Z,3.73
2017-11-26T10:52:53.522Z,3.84
2017-11-26T10:53:52.778Z,3.87
2017-11-26T10:55:46.297Z,3.87
2017-11-26T10:56:45.544Z,3.74
2017-11-26T10:58:41.700Z,3.70
2017-11-26T10:59:48.058Z,3.70
2017-11-26T11:01:34.634Z,3.76
2017-11-26T11:02:31.936Z,3.80
2017-11-26T11:04:26.372Z,3.81
2017-11-26T11:06:45.713Z,3.88
2017-11-26T11:07:46.515Z,3.78
2017-11-26T11:09:38.712Z,3.85
2017-11-26T11:10:39.731Z,3.88
2017-11-26T11:12:31.111Z,3.85
2017-11-26T11:13:31.527Z,3.91
2017-11-26T11:15:24.445Z,3.94
2017-11-26T11:16:25.384Z,3.91
2017-11-26T11:18:18.525Z,3.85
2017-11-26T11:19:18.837Z,3.90
2017-11-26T11:21:12.652Z,3.90
2017-11-26T11:22:12.395Z,3.94
2017-11-26T11:24:06.316Z,3.94
2017-11-26T11:26:29.126Z,3.92
2017-11-26T11:27:29.142Z,3.96
2017-11-26T11:29:21.383Z,3.92
2017-11-26T11:30:21.281Z,3.96
2017-11-26T11:32:16.014Z,4.00
2017-11-26T11:33:15.871Z,4.02
2017-11-26T11:35:11.842Z,3.99
2017-11-26T11:36:12.263Z,4.05
2017-11-26T11:38:04.377Z,4.05
2017-11-26T11:39:04.347Z,4.03
2017-11-26T11:40:56.584Z,4.05
2017-11-26T11:41:56.984Z,4.10
2017-11-26T11:43:52.019Z,4.06
2017-11-26T11:44:51.739Z,4.05
2017-11-26T11:46:46.268Z,4.08
2017-11-26T11:47:47.128Z,4.03
2017-11-26T11:49:40.158Z,4.02
2017-11-26T11:50:40.693Z,4.03
2017-11-26T11:52:33.532Z,4.08
2017-11-26T11:53:33.613Z,4.06
2017-11-26T11:55:27.274Z,4.09
2017-11-26T11:56:29.365Z,4.12
2017-11-26T11:58:20.105Z,4.12
2017-11-26T11:59:21.289Z,4.17
2017-11-26T12:01:12.988Z,4.08
2017-11-26T12:02:14.280Z,4.16
2017-11-26T12:04:06.559Z,4.17
2017-11-26T12:05:05.703Z,4.12
2017-11-26T12:06:59.562Z,4.10
2017-11-26T12:08:00.542Z,4.03
2017-11-26T12:09:54.807Z,4.00
2017-11-26T12:10:54.592Z,4.00
2017-11-26T12:12:49.422Z,4.09
2017-11-26T12:13:49.980Z,4.10
2017-11-26T12:15:43.210Z,4.10
2017-11-26T12:16:42.946Z,4.02
2017-11-26T12:18:34.461Z,4.13
2017-11-26T12:19:35.788Z,4.10
2017-11-26T12:21:28.708Z,4.13
2017-11-26T12:22:29.035Z,4.12
2017-11-26T12:24:23.314Z,4.13
2017-11-26T12:25:22.161Z,4.13
2017-11-26T12:27:17.262Z,4.03
2017-11-26T12:28:16.762Z,4.13
2017-11-26T12:30:11.418Z,4.05
2017-11-26T12:31:22.768Z,4.13
2017-11-26T12:33:05.705Z,4.13
2017-11-26T12:34:05.925Z,4.12
2017-11-26T12:36:01.744Z,4.17
2017-11-26T12:37:08.040Z,4.17
2017-11-26T12:38:55.326Z,4.21
2017-11-26T12:41:18.212Z,4.10
2017-11-26T12:42:18.192Z,4.13
2017-11-26T12:44:10.497Z,4.17
2017-11-26T12:45:10.554Z,4.12
2017-11-26T12:47:03.086Z,4.10
2017-11-26T12:48:03.590Z,4.13
2017-11-26T12:49:55.911Z,4.20
2017-11-26T12:50:56.862Z,4.17
2017-11-26T12:52:50.087Z,4.20
2017-11-26T12:53:50.530Z,4.20
2017-11-26T12:55:46.516Z,4.18
2017-11-26T12:56:45.716Z,4.20
2017-11-26T12:58:38.544Z,4.21
2017-11-26T12:59:39.250Z,4.27
2017-11-26T13:01:34.014Z,4.27
2017-11-26T13:02:32.619Z,4.20
2017-11-26T13:04:25.754Z,4.24
2017-11-26T13:05:26.036Z,4.30
2017-11-26T13:07:22.416Z,4.28
2017-11-26T13:08:22.020Z,4.24
2017-11-26T13:10:16.865Z,4.26
2017-11-26T13:11:16.734Z,4.21
2017-11-26T13:13:11.073Z,4.24
2017-11-26T13:14:09.995Z,4.34
2017-11-26T13:16:02.660Z,4.28
2017-11-26T13:17:04.224Z,4.30
2017-11-26T13:18:56.757Z,4.27
2017-11-26T13:19:56.315Z,4.28
2017-11-26T13:21:48.585Z,4.31
2017-11-26T13:22:48.168Z,4.27
2017-11-26T13:24:40.806Z,4.28
2017-11-26T13:25:41.818Z,4.26
2017-11-26T13:27:34.956Z,4.30
2017-11-26T13:28:35.024Z,4.34
2017-11-26T13:30:28.217Z,4.34
2017-11-26T13:31:27.499Z,4.30
2017-11-26T13:33:21.973Z,4.31
2017-11-26T13:34:21.226Z,4.31
2017-11-26T13:36:14.295Z,4.28
2017-11-26T13:37:14.906Z,4.26
2017-11-26T13:39:06.750Z,4.23
2017-11-26T13:40:06.764Z,4.30
2017-11-26T13:42:06.149Z,4.31
2017-11-26T13:43:00.636Z,4.34
2017-11-26T13:44:55.155Z,4.27
2017-11-26T13:45:56.071Z,4.27
2017-11-26T13:47:58.176Z,4.34
2017-11-26T13:48:57.427Z,4.31
2017-11-26T13:50:51.576Z,4.34
2017-11-26T13:51:50.647Z,4.35
2017-11-26T13:53:45.986Z,4.30
2017-11-26T13:54:45.226Z,4.31
2017-11-26T13:56:38.747Z,4.28
2017-11-26T13:57:38.628Z,4.39
2017-11-26T13:59:33.228Z,4.31
2017-11-26T14:00:32.121Z,4.31
2017-11-26T14:02:31.195Z,4.38
2017-11-26T14:05:27.179Z,4.36
2017-11-26T14:08:20.606Z,4.35
2017-11-26T14:09:19.236Z,4.38
2017-11-26T14:11:16.587Z,4.36
2017-11-26T14:12:16.809Z,4.31
2017-11-26T14:14:14.279Z,4.34
2017-11-26T14:17:04.972Z,4.27
2017-11-26T14:18:06.019Z,4.30
2017-11-26T14:19:58.840Z,4.36
2017-11-26T14:20:58.319Z,4.35
2017-11-26T14:22:52.022Z,4.41
2017-11-26T14:23:51.899Z,4.31
2017-11-26T14:25:45.151Z,4.30
2017-11-26T14:26:45.094Z,4.34
2017-11-26T14:28:38.135Z,4.34
2017-11-26T14:29:37.870Z,4.35
2017-11-26T14:31:32.427Z,4.30
2017-11-26T14:32:33.560Z,4.31
2017-11-26T14:34:27.506Z,4.30
2017-11-26T14:35:27.561Z,4.28
2017-11-26T14:37:21.144Z,4.30
2017-11-26T14:38:21.537Z,4.36
2017-11-26T14:40:15.068Z,4.28
2017-11-26T14:41:14.975Z,4.34
2017-11-26T14:43:09.488Z,4.30
2017-11-26T14:44:09.040Z,4.35
2017-11-26T14:46:03.796Z,4.36
2017-11-26T14:47:03.354Z,4.28
2017-11-26T14:49:04.677Z,4.30
2017-11-26T14:50:04.543Z,4.26
2017-11-26T14:51:57.734Z,4.30
2017-11-26T14:52:57.515Z,4.39
2017-11-26T14:54:50.999Z,4.39
2017-11-26T14:55:50.405Z,4.35
2017-11-26T14:57:48.324Z,4.31
2017-11-26T15:00:38.928Z,4.34
2017-11-26T15:01:40.467Z,4.31
2017-11-26T15:03:39.939Z,4.31
2017-11-26T15:05:57.737Z,4.30
2017-11-26T15:06:55.243Z,4.31
2017-11-26T15:08:50.308Z,4.34
2017-11-26T15:09:50.600Z,4.34
2017-11-26T15:11:43.028Z,4.36
2017-11-26T15:12:43.841Z,4.28
2017-11-26T15:14:39.537Z,4.36
2017-11-26T15:17:34.370Z,4.31
2017-11-26T15:18:33.616Z,4.35
2017-11-26T15:20:27.372Z,4.35
2017-11-26T15:21:27.527Z,4.35
2017-11-26T15:23:24.098Z,4.35
2017-11-26T15:24:24.695Z,4.30
2017-11-26T15:26:23.111Z,4.31
2017-11-26T15:27:18.690Z,4.34
2017-11-26T15:29:10.238Z,4.35
2017-11-26T15:30:11.956Z,4.34
2017-11-26T15:32:04.364Z,4.34
2017-11-26T15:33:04.016Z,4.31
2017-11-26T15:34:58.364Z,4.38
2017-11-26T15:35:57.575Z,4.30
2017-11-26T15:37:52.647Z,4.31
2017-11-26T15:38:51.440Z,4.35
2017-11-26T15:40:44.610Z,4.35
2017-11-26T15:41:45.108Z,4.28
2017-11-26T15:43:37.559Z,4.31
2017-11-26T15:44:38.224Z,4.34
2017-11-26T15:46:33.364Z,4.41
2017-11-26T15:47:32.094Z,4.42
2017-11-26T15:49:26.855Z,4.28
2017-11-26T15:50:26.294Z,4.30
2017-11-26T15:52:19.277Z,4.30
2017-11-26T15:53:19.604Z,4.39
2017-11-26T15:55:15.521Z,4.41
2017-11-26T15:56:15.331Z,4.31
2017-11-26T15:58:10.217Z,4.34
2017-11-26T15:59:10.069Z,4.35
2017-11-26T16:01:02.914Z,4.35
2017-11-26T16:02:03.377Z,4.31
2017-11-26T16:03:56.266Z,4.30
2017-11-26T16:04:56.043Z,4.38
2017-11-26T16:06:48.908Z,4.31
2017-11-26T16:07:49.892Z,4.34
2017-11-26T16:09:44.298Z,4.31
2017-11-26T16:10:43.277Z,4.39
2017-11-26T16:12:35.899Z,4.31
2017-11-26T16:13:35.873Z,4.35
2017-11-26T16:15:29.189Z,4.34
2017-11-26T16:16:28.859Z,4.27
2017-11-26T16:18:21.576Z,4.30
2017-11-26T16:19:22.734Z,4.30
2017-11-26T16:21:18.152Z,4.30
2017-11-26T16:22:18.904Z,4.41
2017-11-26T16:24:10.968Z,4.35
2017-11-26T16:25:12.716Z,4.28
2017-11-26T16:27:06.912Z,4.28
2017-11-26T16:28:04.275Z,4.31
2017-11-26T16:29:57.923Z,4.31
2017-11-26T16:30:58.188Z,4.31
2017-11-26T16:32:54.273Z,4.41
2017-11-26T16:33:51.486Z,4.30
2017-11-26T16:35:43.192Z,4.42
2017-11-26T16:38:04.750Z,4.35
2017-11-26T16:40:23.724Z,4.34
2017-11-26T16:41:23.275Z,4.30
2017-11-26T16:43:17.870Z,4.27
2017-11-26T16:44:26.807Z,4.35
2017-11-26T16:46:10.804Z,4.43
2017-11-26T16:48:32.004Z,4.45
2017-11-26T16:49:31.505Z,4.38
2017-11-26T16:51:26.480Z,4.31
2017-11-26T16:52:25.306Z,4.43
2017-11-26T16:54:19.831Z,4.36
2017-11-26T16:55:20.527Z,4.31
2017-11-26T16:57:13.680Z,4.39
2017-11-26T16:58:14.978Z,4.28
2017-11-26T17:00:08.118Z,4.34
2017-11-26T17:01:07.567Z,4.30
2017-11-26T17:03:00.922Z,4.31
2017-11-26T17:04:01.332Z,4.42
2017-11-26T17:05:54.107Z,4.43
2017-11-26T17:06:53.501Z,4.38
2017-11-26T17:08:49.569Z,4.34
2017-11-26T17:09:49.754Z,4.39
2017-11-26T17:11:43.646Z,4.36
2017-11-26T17:12:43.740Z,4.39
2017-11-26T17:14:36.735Z,4.28
2017-11-26T17:15:37.459Z,4.35
2017-11-26T17:17:29.484Z,4.35
2017-11-26T17:18:29.555Z,4.31
2017-11-26T17:20:21.610Z,4.43
2017-11-26T17:21:21.861Z,4.31
2017-11-26T17:23:20.911Z,4.34
2017-11-26T17:24:18.516Z,4.34
2017-11-26T17:26:14.100Z,4.38
2017-11-26T17:27:12.613Z,4.28
2017-11-26T17:29:04.900Z,4.43
2017-11-26T17:30:05.881Z,4.36
2017-11-26T17:32:02.516Z,4.46
2017-11-26T17:32:59.988Z,4.39
2017-11-26T17:35:03.619Z,4.42
2017-11-26T17:35:59.818Z,4.30
2017-11-26T17:37:53.411Z,4.31
2017-11-26T17:38:53.115Z,4.28
2017-11-26T17:40:46.285Z,4.38
2017-11-26T17:41:45.609Z,4.30
2017-11-26T17:43:39.380Z,4.31
2017-11-26T17:44:39.010Z,4.39
2017-11-26T17:46:31.510Z,4.31
2017-11-26T17:47:31.926Z,4.30
2017-11-26T17:49:26.631Z,4.46
2017-11-26T17:50:26.394Z,4.31
2017-11-26T17:52:20.008Z,4.36
2017-11-26T17:53:20.420Z,4.31
2017-11-26T17:55:15.746Z,4.39
2017-11-26T17:56:16.104Z,4.39
2017-11-26T17:58:10.714Z,4.31
2017-11-26T17:59:11.239Z,4.38
2017-11-26T18:01:04.721Z,4.38
2017-11-26T18:02:03.668Z,4.30
2017-11-26T18:03:56.442Z,4.27
2017-11-26T18:04:59.892Z,4.31
2017-11-26T18:06:49.807Z,4.31
2017-11-26T18:07:49.825Z,4.30
2017-11-26T18:09:43.090Z,4.42
2017-11-26T18:10:43.110Z,4.31
2017-11-26T18:12:36.405Z,4.28
2017-11-26T18:13:36.218Z,4.31
2017-11-26T18:15:29.586Z,4.31
2017-11-26T18:16:30.532Z,4.35
2017-11-26T18:18:22.762Z,4.45
2017-11-26T18:19:26.634Z,4.27
2017-11-26T18:21:17.014Z,4.28
2017-11-26T18:22:19.097Z,4.41
2017-11-26T18:24:10.631Z,4.30
2017-11-26T18:25:11.201Z,4.28
2017-11-26T18:27:04.701Z,4.41
2017-11-26T18:28:05.089Z,4.31
2017-11-26T18:29:57.314Z,4.31
2017-11-26T18:32:18.114Z,4.41
2017-11-26T18:33:18.734Z,4.39
2017-11-26T18:35:13.903Z,4.38
2017-11-26T18:36:13.885Z,4.35
2017-11-26T18:38:07.075Z,4.31
2017-11-26T18:39:06.078Z,4.27
2017-11-26T18:40:58.461Z,4.28
2017-11-26T18:42:00.058Z,4.38
2017-11-26T18:43:51.165Z,4.39
2017-11-26T18:44:53.247Z,4.35
2017-11-26T18:46:43.968Z,4.31
2017-11-26T18:49:05.676Z,4.30
2017-11-26T18:50:06.488Z,4.30
2017-11-26T18:52:00.884Z,4.36
2017-11-26T18:52:59.776Z,4.30
2017-11-26T18:54:51.674Z,4.30
2017-11-26T18:55:53.094Z,4.34
2017-11-26T18:57:46.898Z,4.42
2017-11-26T18:58:47.393Z,4.28
2017-11-26T19:00:39.716Z,4.34
2017-11-26T19:01:39.658Z,4.48
2017-11-26T19:03:32.447Z,4.43
2017-11-26T19:04:32.350Z,4.35
2017-11-26T19:06:25.358Z,4.34
2017-11-26T19:07:26.484Z,4.31
2017-11-26T19:09:19.375Z,4.34
2017-11-26T19:10:20.011Z,4.35
2017-11-26T19:12:11.526Z,4.36
2017-11-26T19:13:11.331Z,4.35
2017-11-26T19:15:05.071Z,4.31
2017-11-26T19:16:07.159Z,4.35
2017-11-26T19:17:58.058Z,4.28
2017-11-26T19:18:59.493Z,4.35
2017-11-26T19:20:51.666Z,4.35
2017-11-26T19:21:51.003Z,4.34
2017-11-26T19:23:45.860Z,4.30
2017-11-26T19:24:45.611Z,4.28
2017-11-26T19:26:40.032Z,4.31
2017-11-26T19:27:39.332Z,4.35
2017-11-26T19:29:34.353Z,4.34
2017-11-26T19:30:32.639Z,4.31
2017-11-26T19:32:25.802Z,4.30
2017-11-26T19:33:25.517Z,4.36
2017-11-26T19:35:18.530Z,4.36
2017-11-26T19:36:18.742Z,4.30
2017-11-26T19:38:11.836Z,4.30
2017-11-26T19:39:11.906Z,4.35
2017-11-26T19:41:06.083Z,4.34
2017-11-26T19:42:06.454Z,4.36
2017-11-26T19:43:59.852Z,4.34
2017-11-26T19:44:58.678Z,4.30
2017-11-26T19:46:54.472Z,4.38
2017-11-26T19:47:55.377Z,4.36
2017-11-26T19:49:47.305Z,4.28
2017-11-26T19:50:48.684Z,4.30
2017-11-26T19:52:41.682Z,4.31
2017-11-26T19:53:41.556Z,4.36
2017-11-26T19:55:34.206Z,4.36
2017-11-26T19:56:34.122Z,4.30
2017-11-26T19:58:27.634Z,4.31
2017-11-26T19:59:28.368Z,4.30
2017-11-26T20:01:20.414Z,4.31
2017-11-26T20:02:19.154Z,4.24
2017-11-26T20:04:12.711Z,4.24
2017-11-26T20:05:12.987Z,4.26
2017-11-26T20:07:06.949Z,4.27
2017-11-26T20:08:07.851Z,4.26
2017-11-26T20:09:59.716Z,4.28
2017-11-26T20:11:00.550Z,4.28
2017-11-26T20:12:52.525Z,4.30
2017-11-26T20:13:52.131Z,4.30